sensor_id;sensor_type;location;lat;lon;timestamp;temperature;humidity
4840;DHT22;2434;48.486;7.964;2023-05-29T00:01:36;17.10;42.60
4840;DHT22;2434;48.486;7.964;2023-05-29T00:04:04;17.10;42.30
4840;DHT22;2434;48.486;7.964;2023-05-29T00:06:33;17.10;43.30
4840;DHT22;2434;48.486;7.964;2023-05-29T00:09:04;17.10;43.40
4840;DHT22;2434;48.486;7.964;2023-05-29T00:11:33;17.10;43.30
4840;DHT22;2434;48.486;7.964;2023-05-29T00:14:01;17.10;42.70
4840;DHT22;2434;48.486;7.964;2023-05-29T00:16:29;17.10;42.80
4840;DHT22;2434;48.486;7.964;2023-05-29T00:18:58;17.10;43.00
4840;DHT22;2434;48.486;7.964;2023-05-29T00:21:26;17.10;42.40
4840;DHT22;2434;48.486;7.964;2023-05-29T00:23:54;17.10;42.40
4840;DHT22;2434;48.486;7.964;2023-05-29T00:26:24;17.00;42.00
4840;DHT22;2434;48.486;7.964;2023-05-29T00:28:54;17.10;43.10
4840;DHT22;2434;48.486;7.964;2023-05-29T00:31:22;17.00;41.90
4840;DHT22;2434;48.486;7.964;2023-05-29T00:33:51;17.00;41.80
4840;DHT22;2434;48.486;7.964;2023-05-29T00:36:19;17.00;41.60
4840;DHT22;2434;48.486;7.964;2023-05-29T00:38:48;17.00;41.50
4840;DHT22;2434;48.486;7.964;2023-05-29T00:41:17;16.90;41.00
4840;DHT22;2434;48.486;7.964;2023-05-29T00:43:47;16.90;41.50
4840;DHT22;2434;48.486;7.964;2023-05-29T00:46:16;16.90;41.50
4840;DHT22;2434;48.486;7.964;2023-05-29T00:48:47;16.90;41.80
4840;DHT22;2434;48.486;7.964;2023-05-29T00:51:16;16.90;41.90
4840;DHT22;2434;48.486;7.964;2023-05-29T00:53:45;16.80;42.40
4840;DHT22;2434;48.486;7.964;2023-05-29T00:56:13;16.80;43.20
4840;DHT22;2434;48.486;7.964;2023-05-29T00:58:42;16.80;42.90
4840;DHT22;2434;48.486;7.964;2023-05-29T01:01:12;16.80;42.50
4840;DHT22;2434;48.486;7.964;2023-05-29T01:03:41;16.80;42.30
4840;DHT22;2434;48.486;7.964;2023-05-29T01:06:10;16.80;43.30
4840;DHT22;2434;48.486;7.964;2023-05-29T01:08:38;16.70;42.20
4840;DHT22;2434;48.486;7.964;2023-05-29T01:11:12;16.70;42.00
4840;DHT22;2434;48.486;7.964;2023-05-29T01:13:44;16.70;43.40
4840;DHT22;2434;48.486;7.964;2023-05-29T01:16:20;16.70;42.60
4840;DHT22;2434;48.486;7.964;2023-05-29T01:18:56;16.70;42.30
4840;DHT22;2434;48.486;7.964;2023-05-29T01:21:38;16.70;43.30
4840;DHT22;2434;48.486;7.964;2023-05-29T01:24:14;16.60;43.50
4840;DHT22;2434;48.486;7.964;2023-05-29T01:26:50;16.60;44.00
4840;DHT22;2434;48.486;7.964;2023-05-29T01:29:24;16.60;44.20
4840;DHT22;2434;48.486;7.964;2023-05-29T01:31:54;16.60;43.90
4840;DHT22;2434;48.486;7.964;2023-05-29T01:34:24;16.50;44.20
4840;DHT22;2434;48.486;7.964;2023-05-29T01:36:52;16.50;44.10
4840;DHT22;2434;48.486;7.964;2023-05-29T01:39:21;16.50;44.00
4840;DHT22;2434;48.486;7.964;2023-05-29T01:41:53;16.40;44.00
4840;DHT22;2434;48.486;7.964;2023-05-29T01:44:23;16.40;44.50
4840;DHT22;2434;48.486;7.964;2023-05-29T01:46:52;16.40;44.20
4840;DHT22;2434;48.486;7.964;2023-05-29T01:49:23;16.40;44.20
4840;DHT22;2434;48.486;7.964;2023-05-29T01:51:52;16.40;44.90
4840;DHT22;2434;48.486;7.964;2023-05-29T01:54:20;16.30;44.70
4840;DHT22;2434;48.486;7.964;2023-05-29T01:56:49;16.30;44.50
4840;DHT22;2434;48.486;7.964;2023-05-29T01:59:21;16.20;44.10
4840;DHT22;2434;48.486;7.964;2023-05-29T02:01:50;16.30;44.20
4840;DHT22;2434;48.486;7.964;2023-05-29T02:04:18;16.30;44.80
4840;DHT22;2434;48.486;7.964;2023-05-29T02:06:47;16.20;45.10
4840;DHT22;2434;48.486;7.964;2023-05-29T02:09:17;16.20;44.70
4840;DHT22;2434;48.486;7.964;2023-05-29T02:11:45;16.20;44.80
4840;DHT22;2434;48.486;7.964;2023-05-29T02:14:14;16.20;44.80
4840;DHT22;2434;48.486;7.964;2023-05-29T02:16:43;16.10;45.40
4840;DHT22;2434;48.486;7.964;2023-05-29T02:19:12;16.10;45.00
4840;DHT22;2434;48.486;7.964;2023-05-29T02:21:40;16.10;44.50
4840;DHT22;2434;48.486;7.964;2023-05-29T02:24:08;16.10;44.30
4840;DHT22;2434;48.486;7.964;2023-05-29T02:26:37;16.10;44.90
4840;DHT22;2434;48.486;7.964;2023-05-29T02:29:05;16.00;44.50
4840;DHT22;2434;48.486;7.964;2023-05-29T02:31:34;16.00;45.50
4840;DHT22;2434;48.486;7.964;2023-05-29T02:34:05;16.00;45.90
4840;DHT22;2434;48.486;7.964;2023-05-29T02:36:34;16.00;45.70
4840;DHT22;2434;48.486;7.964;2023-05-29T02:39:05;15.90;45.90
4840;DHT22;2434;48.486;7.964;2023-05-29T02:41:33;15.90;46.90
4840;DHT22;2434;48.486;7.964;2023-05-29T02:44:01;15.80;46.70
4840;DHT22;2434;48.486;7.964;2023-05-29T02:46:29;15.80;47.00
4840;DHT22;2434;48.486;7.964;2023-05-29T02:48:58;15.70;47.10
4840;DHT22;2434;48.486;7.964;2023-05-29T02:51:27;15.70;47.50
4840;DHT22;2434;48.486;7.964;2023-05-29T02:53:56;15.60;47.40
4840;DHT22;2434;48.486;7.964;2023-05-29T02:56:25;15.50;47.60
4840;DHT22;2434;48.486;7.964;2023-05-29T02:58:53;15.50;47.90
4840;DHT22;2434;48.486;7.964;2023-05-29T03:01:21;15.40;48.00
4840;DHT22;2434;48.486;7.964;2023-05-29T03:03:50;15.40;48.00
4840;DHT22;2434;48.486;7.964;2023-05-29T03:06:19;15.40;49.00
4840;DHT22;2434;48.486;7.964;2023-05-29T03:08:49;15.20;48.50
4840;DHT22;2434;48.486;7.964;2023-05-29T03:11:18;15.20;48.70
4840;DHT22;2434;48.486;7.964;2023-05-29T03:13:46;15.20;48.70
4840;DHT22;2434;48.486;7.964;2023-05-29T03:16:16;15.20;49.00
4840;DHT22;2434;48.486;7.964;2023-05-29T03:18:45;15.10;49.00
4840;DHT22;2434;48.486;7.964;2023-05-29T03:21:17;15.10;49.10
4840;DHT22;2434;48.486;7.964;2023-05-29T03:23:46;15.10;49.20
4840;DHT22;2434;48.486;7.964;2023-05-29T03:26:15;15.00;49.50
4840;DHT22;2434;48.486;7.964;2023-05-29T03:28:44;15.00;49.50
4840;DHT22;2434;48.486;7.964;2023-05-29T03:31:13;15.00;49.50
4840;DHT22;2434;48.486;7.964;2023-05-29T03:33:41;14.90;49.80
4840;DHT22;2434;48.486;7.964;2023-05-29T03:36:17;14.80;49.80
4840;DHT22;2434;48.486;7.964;2023-05-29T03:38:45;14.80;50.00
4840;DHT22;2434;48.486;7.964;2023-05-29T03:41:15;14.80;50.00
4840;DHT22;2434;48.486;7.964;2023-05-29T03:43:43;14.70;50.20
4840;DHT22;2434;48.486;7.964;2023-05-29T03:46:13;14.70;50.70
4840;DHT22;2434;48.486;7.964;2023-05-29T03:48:41;14.70;50.80
4840;DHT22;2434;48.486;7.964;2023-05-29T03:51:09;14.60;51.00
4840;DHT22;2434;48.486;7.964;2023-05-29T03:53:39;14.60;51.20
4840;DHT22;2434;48.486;7.964;2023-05-29T03:56:08;14.60;51.60
4840;DHT22;2434;48.486;7.964;2023-05-29T03:58:37;14.60;51.60
4840;DHT22;2434;48.486;7.964;2023-05-29T04:01:07;14.50;51.40
4840;DHT22;2434;48.486;7.964;2023-05-29T04:03:36;14.50;51.60
4840;DHT22;2434;48.486;7.964;2023-05-29T04:06:06;14.50;51.80
4840;DHT22;2434;48.486;7.964;2023-05-29T04:08:35;14.50;52.00
4840;DHT22;2434;48.486;7.964;2023-05-29T04:11:04;14.40;52.00
4840;DHT22;2434;48.486;7.964;2023-05-29T04:13:32;14.50;52.20
4840;DHT22;2434;48.486;7.964;2023-05-29T04:16:02;14.50;52.50
4840;DHT22;2434;48.486;7.964;2023-05-29T04:18:30;14.50;52.50
4840;DHT22;2434;48.486;7.964;2023-05-29T04:20:59;14.50;52.80
4840;DHT22;2434;48.486;7.964;2023-05-29T04:23:28;14.40;53.00
4840;DHT22;2434;48.486;7.964;2023-05-29T04:25:56;14.40;53.00
4840;DHT22;2434;48.486;7.964;2023-05-29T04:28:26;14.40;53.50
4840;DHT22;2434;48.486;7.964;2023-05-29T04:30:56;14.40;53.60
4840;DHT22;2434;48.486;7.964;2023-05-29T04:33:26;14.40;53.50
4840;DHT22;2434;48.486;7.964;2023-05-29T04:35:57;14.40;53.80
4840;DHT22;2434;48.486;7.964;2023-05-29T04:38:28;14.40;53.90
4840;DHT22;2434;48.486;7.964;2023-05-29T04:40:57;14.40;53.40
4840;DHT22;2434;48.486;7.964;2023-05-29T04:43:27;14.40;53.60
4840;DHT22;2434;48.486;7.964;2023-05-29T04:46:04;14.50;54.70
4840;DHT22;2434;48.486;7.964;2023-05-29T04:48:36;14.50;54.00
4840;DHT22;2434;48.486;7.964;2023-05-29T04:51:08;14.50;54.30
4840;DHT22;2434;48.486;7.964;2023-05-29T04:53:38;14.50;53.80
4840;DHT22;2434;48.486;7.964;2023-05-29T04:56:08;14.50;53.90
4840;DHT22;2434;48.486;7.964;2023-05-29T04:58:37;14.60;54.70
4840;DHT22;2434;48.486;7.964;2023-05-29T05:01:06;14.60;54.30
4840;DHT22;2434;48.486;7.964;2023-05-29T05:03:38;14.60;53.90
4840;DHT22;2434;48.486;7.964;2023-05-29T05:06:06;14.60;53.80
4840;DHT22;2434;48.486;7.964;2023-05-29T05:08:36;14.60;53.50
4840;DHT22;2434;48.486;7.964;2023-05-29T05:11:04;14.70;54.00
4840;DHT22;2434;48.486;7.964;2023-05-29T05:13:33;14.70;54.60
4840;DHT22;2434;48.486;7.964;2023-05-29T05:16:02;14.70;54.30
4840;DHT22;2434;48.486;7.964;2023-05-29T05:18:31;14.70;54.00
4840;DHT22;2434;48.486;7.964;2023-05-29T05:21:04;14.70;53.90
4840;DHT22;2434;48.486;7.964;2023-05-29T05:23:35;14.80;54.20
4840;DHT22;2434;48.486;7.964;2023-05-29T05:26:23;14.80;54.10
4840;DHT22;2434;48.486;7.964;2023-05-29T05:28:53;14.80;54.10
4840;DHT22;2434;48.486;7.964;2023-05-29T05:31:24;14.80;54.50
4840;DHT22;2434;48.486;7.964;2023-05-29T05:33:53;14.80;53.90
4840;DHT22;2434;48.486;7.964;2023-05-29T05:36:23;14.90;53.90
4840;DHT22;2434;48.486;7.964;2023-05-29T05:38:57;14.90;53.40
4840;DHT22;2434;48.486;7.964;2023-05-29T05:41:26;14.90;53.10
4840;DHT22;2434;48.486;7.964;2023-05-29T05:43:55;14.90;52.20
4840;DHT22;2434;48.486;7.964;2023-05-29T05:46:37;14.90;52.50
4840;DHT22;2434;48.486;7.964;2023-05-29T05:49:06;15.00;52.10
4840;DHT22;2434;48.486;7.964;2023-05-29T05:51:36;15.00;52.50
4840;DHT22;2434;48.486;7.964;2023-05-29T05:54:05;15.00;52.40
4840;DHT22;2434;48.486;7.964;2023-05-29T05:56:33;15.10;52.40
4840;DHT22;2434;48.486;7.964;2023-05-29T05:59:02;15.10;52.50
4840;DHT22;2434;48.486;7.964;2023-05-29T06:01:30;15.10;52.70
4840;DHT22;2434;48.486;7.964;2023-05-29T06:04:00;15.10;52.30
4840;DHT22;2434;48.486;7.964;2023-05-29T06:06:31;15.10;52.90
4840;DHT22;2434;48.486;7.964;2023-05-29T06:09:01;15.20;53.30
4840;DHT22;2434;48.486;7.964;2023-05-29T06:11:31;15.20;52.80
4840;DHT22;2434;48.486;7.964;2023-05-29T06:14:00;15.20;52.30
4840;DHT22;2434;48.486;7.964;2023-05-29T06:16:29;15.20;52.90
4840;DHT22;2434;48.486;7.964;2023-05-29T06:18:58;15.20;52.50
4840;DHT22;2434;48.486;7.964;2023-05-29T06:21:29;15.30;54.30
4840;DHT22;2434;48.486;7.964;2023-05-29T06:23:57;15.30;54.00
4840;DHT22;2434;48.486;7.964;2023-05-29T06:26:27;15.40;53.90
4840;DHT22;2434;48.486;7.964;2023-05-29T06:28:56;15.40;52.90
4840;DHT22;2434;48.486;7.964;2023-05-29T06:31:25;15.40;52.50
4840;DHT22;2434;48.486;7.964;2023-05-29T06:33:53;15.50;53.30
4840;DHT22;2434;48.486;7.964;2023-05-29T06:36:22;15.50;54.20
4840;DHT22;2434;48.486;7.964;2023-05-29T06:38:51;15.60;53.20
4840;DHT22;2434;48.486;7.964;2023-05-29T06:41:20;15.60;53.80
4840;DHT22;2434;48.486;7.964;2023-05-29T06:43:50;15.70;52.30
4840;DHT22;2434;48.486;7.964;2023-05-29T06:46:21;15.70;52.20
4840;DHT22;2434;48.486;7.964;2023-05-29T06:48:50;15.80;52.40
4840;DHT22;2434;48.486;7.964;2023-05-29T06:51:20;15.80;52.40
4840;DHT22;2434;48.486;7.964;2023-05-29T06:53:54;15.90;51.20
4840;DHT22;2434;48.486;7.964;2023-05-29T06:56:24;15.90;52.20
4840;DHT22;2434;48.486;7.964;2023-05-29T06:58:54;16.00;50.90
4840;DHT22;2434;48.486;7.964;2023-05-29T07:01:22;16.00;49.90
4840;DHT22;2434;48.486;7.964;2023-05-29T07:03:58;16.10;48.70
4840;DHT22;2434;48.486;7.964;2023-05-29T07:06:26;16.20;49.20
4840;DHT22;2434;48.486;7.964;2023-05-29T07:08:55;16.20;48.90
4840;DHT22;2434;48.486;7.964;2023-05-29T07:11:23;16.20;49.30
4840;DHT22;2434;48.486;7.964;2023-05-29T07:13:54;16.30;49.30
4840;DHT22;2434;48.486;7.964;2023-05-29T07:16:25;16.30;48.90
4840;DHT22;2434;48.486;7.964;2023-05-29T07:18:58;16.40;48.80
4840;DHT22;2434;48.486;7.964;2023-05-29T07:21:29;16.50;50.10
4840;DHT22;2434;48.486;7.964;2023-05-29T07:23:59;16.50;48.40
4840;DHT22;2434;48.486;7.964;2023-05-29T07:26:27;16.60;48.70
4840;DHT22;2434;48.486;7.964;2023-05-29T07:28:59;16.60;48.80
4840;DHT22;2434;48.486;7.964;2023-05-29T07:31:31;16.70;49.80
4840;DHT22;2434;48.486;7.964;2023-05-29T07:34:00;16.80;49.00
4840;DHT22;2434;48.486;7.964;2023-05-29T07:36:30;16.80;50.40
4840;DHT22;2434;48.486;7.964;2023-05-29T07:39:00;16.90;48.90
4840;DHT22;2434;48.486;7.964;2023-05-29T07:41:29;17.00;46.70
4840;DHT22;2434;48.486;7.964;2023-05-29T07:44:00;17.10;45.60
4840;DHT22;2434;48.486;7.964;2023-05-29T07:46:30;17.10;46.10
4840;DHT22;2434;48.486;7.964;2023-05-29T07:49:19;17.20;45.60
4840;DHT22;2434;48.486;7.964;2023-05-29T07:51:49;17.20;44.70
4840;DHT22;2434;48.486;7.964;2023-05-29T07:54:18;17.30;45.80
4840;DHT22;2434;48.486;7.964;2023-05-29T07:56:48;17.40;45.20
4840;DHT22;2434;48.486;7.964;2023-05-29T07:59:18;17.40;44.60
4840;DHT22;2434;48.486;7.964;2023-05-29T08:01:46;17.50;45.00
4840;DHT22;2434;48.486;7.964;2023-05-29T08:04:35;17.60;44.80
4840;DHT22;2434;48.486;7.964;2023-05-29T08:07:04;17.70;44.30
4840;DHT22;2434;48.486;7.964;2023-05-29T08:09:32;17.70;43.80
4840;DHT22;2434;48.486;7.964;2023-05-29T08:12:02;17.80;43.20
4840;DHT22;2434;48.486;7.964;2023-05-29T08:14:31;17.90;42.90
4840;DHT22;2434;48.486;7.964;2023-05-29T08:17:02;17.90;42.60
4840;DHT22;2434;48.486;7.964;2023-05-29T08:19:30;18.00;42.70
4840;DHT22;2434;48.486;7.964;2023-05-29T08:21:58;18.00;42.40
4840;DHT22;2434;48.486;7.964;2023-05-29T08:24:27;18.10;44.50
4840;DHT22;2434;48.486;7.964;2023-05-29T08:26:55;18.20;42.80
4840;DHT22;2434;48.486;7.964;2023-05-29T08:29:24;18.20;43.30
4840;DHT22;2434;48.486;7.964;2023-05-29T08:31:55;18.30;43.90
4840;DHT22;2434;48.486;7.964;2023-05-29T08:34:23;18.40;43.20
4840;DHT22;2434;48.486;7.964;2023-05-29T08:36:52;18.40;41.40
4840;DHT22;2434;48.486;7.964;2023-05-29T08:39:21;18.50;42.40
4840;DHT22;2434;48.486;7.964;2023-05-29T08:41:55;18.60;41.80
4840;DHT22;2434;48.486;7.964;2023-05-29T08:44:30;18.70;45.10
4840;DHT22;2434;48.486;7.964;2023-05-29T08:47:02;18.80;42.30
4840;DHT22;2434;48.486;7.964;2023-05-29T08:49:40;18.90;42.30
4840;DHT22;2434;48.486;7.964;2023-05-29T08:52:12;19.00;41.60
4840;DHT22;2434;48.486;7.964;2023-05-29T08:54:42;19.10;40.50
4840;DHT22;2434;48.486;7.964;2023-05-29T08:57:11;19.10;40.10
4840;DHT22;2434;48.486;7.964;2023-05-29T08:59:43;19.20;40.30
4840;DHT22;2434;48.486;7.964;2023-05-29T09:02:13;19.30;41.80
4840;DHT22;2434;48.486;7.964;2023-05-29T09:04:43;19.30;40.60
4840;DHT22;2434;48.486;7.964;2023-05-29T09:07:16;19.40;39.40
4840;DHT22;2434;48.486;7.964;2023-05-29T09:09:45;19.50;39.30
4840;DHT22;2434;48.486;7.964;2023-05-29T09:12:13;19.70;41.40
4840;DHT22;2434;48.486;7.964;2023-05-29T09:14:43;19.70;39.90
4840;DHT22;2434;48.486;7.964;2023-05-29T09:17:13;19.80;38.70
4840;DHT22;2434;48.486;7.964;2023-05-29T09:19:43;19.80;37.70
4840;DHT22;2434;48.486;7.964;2023-05-29T09:22:13;19.90;37.10
4840;DHT22;2434;48.486;7.964;2023-05-29T09:24:46;19.90;38.30
4840;DHT22;2434;48.486;7.964;2023-05-29T09:27:15;20.00;38.30
4840;DHT22;2434;48.486;7.964;2023-05-29T09:29:45;20.10;37.20
4840;DHT22;2434;48.486;7.964;2023-05-29T09:32:18;20.20;36.80
4840;DHT22;2434;48.486;7.964;2023-05-29T09:34:47;20.30;36.80
4840;DHT22;2434;48.486;7.964;2023-05-29T09:37:15;20.30;38.10
4840;DHT22;2434;48.486;7.964;2023-05-29T09:39:48;20.50;40.20
4840;DHT22;2434;48.486;7.964;2023-05-29T09:42:18;20.50;37.00
4840;DHT22;2434;48.486;7.964;2023-05-29T09:44:49;20.60;35.90
4840;DHT22;2434;48.486;7.964;2023-05-29T09:47:21;20.70;37.20
4840;DHT22;2434;48.486;7.964;2023-05-29T09:49:49;20.80;37.30
4840;DHT22;2434;48.486;7.964;2023-05-29T09:52:21;20.90;35.90
4840;DHT22;2434;48.486;7.964;2023-05-29T09:54:50;20.90;35.00
4840;DHT22;2434;48.486;7.964;2023-05-29T09:57:20;21.00;34.90
4840;DHT22;2434;48.486;7.964;2023-05-29T09:59:52;21.10;35.70
4840;DHT22;2434;48.486;7.964;2023-05-29T10:02:22;21.20;34.90
4840;DHT22;2434;48.486;7.964;2023-05-29T10:04:51;21.20;36.10
4840;DHT22;2434;48.486;7.964;2023-05-29T10:07:25;21.30;34.80
4840;DHT22;2434;48.486;7.964;2023-05-29T10:09:58;21.30;35.90
4840;DHT22;2434;48.486;7.964;2023-05-29T10:12:29;21.40;34.80
4840;DHT22;2434;48.486;7.964;2023-05-29T10:14:59;21.50;35.10
4840;DHT22;2434;48.486;7.964;2023-05-29T10:17:33;21.60;35.30
4840;DHT22;2434;48.486;7.964;2023-05-29T10:20:05;21.70;33.90
4840;DHT22;2434;48.486;7.964;2023-05-29T10:22:37;21.70;33.80
4840;DHT22;2434;48.486;7.964;2023-05-29T10:25:09;21.80;34.80
4840;DHT22;2434;48.486;7.964;2023-05-29T10:27:39;21.90;33.70
4840;DHT22;2434;48.486;7.964;2023-05-29T10:30:12;21.90;34.70
4840;DHT22;2434;48.486;7.964;2023-05-29T10:32:58;22.00;33.70
4840;DHT22;2434;48.486;7.964;2023-05-29T10:35:44;22.10;34.20
4840;DHT22;2434;48.486;7.964;2023-05-29T10:38:15;22.10;32.90
4840;DHT22;2434;48.486;7.964;2023-05-29T10:40:45;22.20;34.20
4840;DHT22;2434;48.486;7.964;2023-05-29T10:43:33;22.20;33.60
4840;DHT22;2434;48.486;7.964;2023-05-29T10:46:02;22.30;34.40
4840;DHT22;2434;48.486;7.964;2023-05-29T10:48:40;22.40;34.60
4840;DHT22;2434;48.486;7.964;2023-05-29T10:51:23;22.40;34.30
4840;DHT22;2434;48.486;7.964;2023-05-29T10:53:52;22.60;32.20
4840;DHT22;2434;48.486;7.964;2023-05-29T10:56:22;22.60;31.60
4840;DHT22;2434;48.486;7.964;2023-05-29T10:58:55;22.60;31.90
4840;DHT22;2434;48.486;7.964;2023-05-29T11:01:24;22.70;32.00
4840;DHT22;2434;48.486;7.964;2023-05-29T11:04:27;22.70;31.10
4840;DHT22;2434;48.486;7.964;2023-05-29T11:06:59;22.80;32.40
4840;DHT22;2434;48.486;7.964;2023-05-29T11:09:32;22.80;32.10
4840;DHT22;2434;48.486;7.964;2023-05-29T11:12:15;22.90;31.50
4840;DHT22;2434;48.486;7.964;2023-05-29T11:14:59;23.00;32.30
4840;DHT22;2434;48.486;7.964;2023-05-29T11:17:34;23.10;30.60
4840;DHT22;2434;48.486;7.964;2023-05-29T11:20:20;23.10;31.30
4840;DHT22;2434;48.486;7.964;2023-05-29T11:23:02;23.20;31.80
4840;DHT22;2434;48.486;7.964;2023-05-29T11:25:36;23.30;30.60
4840;DHT22;2434;48.486;7.964;2023-05-29T11:28:05;23.40;29.80
4840;DHT22;2434;48.486;7.964;2023-05-29T11:30:43;23.50;30.30
4840;DHT22;2434;48.486;7.964;2023-05-29T11:33:20;23.50;29.30
4840;DHT22;2434;48.486;7.964;2023-05-29T11:35:56;23.60;31.90
4840;DHT22;2434;48.486;7.964;2023-05-29T11:38:26;23.60;29.70
4840;DHT22;2434;48.486;7.964;2023-05-29T11:40:55;23.70;28.20
4840;DHT22;2434;48.486;7.964;2023-05-29T11:43:25;23.70;29.90
4840;DHT22;2434;48.486;7.964;2023-05-29T11:45:53;23.80;29.60
4840;DHT22;2434;48.486;7.964;2023-05-29T11:48:22;23.90;30.30
4840;DHT22;2434;48.486;7.964;2023-05-29T11:50:51;23.90;29.50
4840;DHT22;2434;48.486;7.964;2023-05-29T11:53:21;24.00;29.80
4840;DHT22;2434;48.486;7.964;2023-05-29T11:55:49;24.00;29.30
4840;DHT22;2434;48.486;7.964;2023-05-29T11:58:17;24.10;28.40
4840;DHT22;2434;48.486;7.964;2023-05-29T12:00:47;24.20;28.50
4840;DHT22;2434;48.486;7.964;2023-05-29T12:03:17;24.30;28.60
4840;DHT22;2434;48.486;7.964;2023-05-29T12:05:47;24.30;29.00
4840;DHT22;2434;48.486;7.964;2023-05-29T12:08:22;24.40;27.20
4840;DHT22;2434;48.486;7.964;2023-05-29T12:10:52;24.40;27.80
4840;DHT22;2434;48.486;7.964;2023-05-29T12:13:22;24.50;27.20
4840;DHT22;2434;48.486;7.964;2023-05-29T12:15:53;24.60;28.20
4840;DHT22;2434;48.486;7.964;2023-05-29T12:18:23;24.60;26.80
4840;DHT22;2434;48.486;7.964;2023-05-29T12:20:57;24.60;24.80
4840;DHT22;2434;48.486;7.964;2023-05-29T12:23:27;24.70;27.10
4840;DHT22;2434;48.486;7.964;2023-05-29T12:25:57;24.80;27.50
4840;DHT22;2434;48.486;7.964;2023-05-29T12:28:26;24.80;24.90
4840;DHT22;2434;48.486;7.964;2023-05-29T12:30:58;24.80;25.20
4840;DHT22;2434;48.486;7.964;2023-05-29T12:33:31;24.90;25.10
4840;DHT22;2434;48.486;7.964;2023-05-29T12:36:07;24.90;24.20
4840;DHT22;2434;48.486;7.964;2023-05-29T12:38:48;24.90;23.60
4840;DHT22;2434;48.486;7.964;2023-05-29T12:41:27;25.00;23.00
4840;DHT22;2434;48.486;7.964;2023-05-29T12:43:56;25.00;23.30
4840;DHT22;2434;48.486;7.964;2023-05-29T12:46:25;25.00;23.70
4840;DHT22;2434;48.486;7.964;2023-05-29T12:48:54;25.10;22.50
4840;DHT22;2434;48.486;7.964;2023-05-29T12:51:24;25.10;23.20
4840;DHT22;2434;48.486;7.964;2023-05-29T12:53:54;25.20;21.70
4840;DHT22;2434;48.486;7.964;2023-05-29T12:56:24;25.20;20.70
4840;DHT22;2434;48.486;7.964;2023-05-29T12:58:53;25.20;23.20
4840;DHT22;2434;48.486;7.964;2023-05-29T13:01:21;25.30;22.00
4840;DHT22;2434;48.486;7.964;2023-05-29T13:03:51;25.30;22.40
4840;DHT22;2434;48.486;7.964;2023-05-29T13:06:19;25.30;21.70
4840;DHT22;2434;48.486;7.964;2023-05-29T13:08:48;25.40;21.40
4840;DHT22;2434;48.486;7.964;2023-05-29T13:11:17;25.40;21.20
4840;DHT22;2434;48.486;7.964;2023-05-29T13:13:46;25.40;20.70
4840;DHT22;2434;48.486;7.964;2023-05-29T13:16:14;25.40;20.50
4840;DHT22;2434;48.486;7.964;2023-05-29T13:18:44;25.40;21.00
4840;DHT22;2434;48.486;7.964;2023-05-29T13:21:13;25.40;20.70
4840;DHT22;2434;48.486;7.964;2023-05-29T13:23:41;25.40;19.70
4840;DHT22;2434;48.486;7.964;2023-05-29T13:26:10;25.40;19.90
4840;DHT22;2434;48.486;7.964;2023-05-29T13:28:39;25.40;20.60
4840;DHT22;2434;48.486;7.964;2023-05-29T13:31:08;25.50;20.60
4840;DHT22;2434;48.486;7.964;2023-05-29T13:33:36;25.50;20.50
4840;DHT22;2434;48.486;7.964;2023-05-29T13:36:05;25.50;21.10
4840;DHT22;2434;48.486;7.964;2023-05-29T13:38:33;25.50;20.70
4840;DHT22;2434;48.486;7.964;2023-05-29T13:41:02;25.50;19.60
4840;DHT22;2434;48.486;7.964;2023-05-29T13:43:30;25.50;20.70
4840;DHT22;2434;48.486;7.964;2023-05-29T13:46:12;25.50;20.20
4840;DHT22;2434;48.486;7.964;2023-05-29T13:48:40;25.50;19.60
4840;DHT22;2434;48.486;7.964;2023-05-29T13:51:08;25.50;19.60
4840;DHT22;2434;48.486;7.964;2023-05-29T13:53:37;25.50;19.90
4840;DHT22;2434;48.486;7.964;2023-05-29T13:56:05;25.50;19.90
4840;DHT22;2434;48.486;7.964;2023-05-29T13:58:34;25.50;20.10
4840;DHT22;2434;48.486;7.964;2023-05-29T14:01:02;25.50;20.00
4840;DHT22;2434;48.486;7.964;2023-05-29T14:03:32;25.50;19.80
4840;DHT22;2434;48.486;7.964;2023-05-29T14:06:00;25.50;19.90
4840;DHT22;2434;48.486;7.964;2023-05-29T14:08:32;25.50;19.90
4840;DHT22;2434;48.486;7.964;2023-05-29T14:11:00;25.50;19.50
4840;DHT22;2434;48.486;7.964;2023-05-29T14:13:28;25.50;20.00
4840;DHT22;2434;48.486;7.964;2023-05-29T14:15:57;25.60;19.30
4840;DHT22;2434;48.486;7.964;2023-05-29T14:18:26;25.60;19.80
4840;DHT22;2434;48.486;7.964;2023-05-29T14:20:56;25.60;19.00
4840;DHT22;2434;48.486;7.964;2023-05-29T14:23:24;25.60;18.90
4840;DHT22;2434;48.486;7.964;2023-05-29T14:25:52;25.60;19.20
4840;DHT22;2434;48.486;7.964;2023-05-29T14:28:21;25.60;18.60
4840;DHT22;2434;48.486;7.964;2023-05-29T14:30:49;25.50;18.80
4840;DHT22;2434;48.486;7.964;2023-05-29T14:33:18;25.50;19.90
4840;DHT22;2434;48.486;7.964;2023-05-29T14:35:46;25.50;19.30
4840;DHT22;2434;48.486;7.964;2023-05-29T14:38:16;25.60;19.70
4840;DHT22;2434;48.486;7.964;2023-05-29T14:40:44;25.50;18.90
4840;DHT22;2434;48.486;7.964;2023-05-29T14:43:23;25.60;18.60
4840;DHT22;2434;48.486;7.964;2023-05-29T14:45:52;25.50;19.20
4840;DHT22;2434;48.486;7.964;2023-05-29T14:48:20;25.60;18.30
4840;DHT22;2434;48.486;7.964;2023-05-29T14:50:48;25.60;17.90
4840;DHT22;2434;48.486;7.964;2023-05-29T14:53:18;25.50;19.50
4840;DHT22;2434;48.486;7.964;2023-05-29T14:55:48;25.50;19.50
4840;DHT22;2434;48.486;7.964;2023-05-29T14:58:16;25.60;18.10
4840;DHT22;2434;48.486;7.964;2023-05-29T15:00:45;25.60;18.40
4840;DHT22;2434;48.486;7.964;2023-05-29T15:03:13;25.60;18.30
4840;DHT22;2434;48.486;7.964;2023-05-29T15:05:41;25.60;19.00
4840;DHT22;2434;48.486;7.964;2023-05-29T15:08:09;25.60;19.00
4840;DHT22;2434;48.486;7.964;2023-05-29T15:10:39;25.60;19.30
4840;DHT22;2434;48.486;7.964;2023-05-29T15:13:07;25.70;18.30
4840;DHT22;2434;48.486;7.964;2023-05-29T15:15:35;25.60;17.70
4840;DHT22;2434;48.486;7.964;2023-05-29T15:18:14;25.60;18.20
4840;DHT22;2434;48.486;7.964;2023-05-29T15:20:42;25.60;17.00
4840;DHT22;2434;48.486;7.964;2023-05-29T15:23:11;25.60;16.80
4840;DHT22;2434;48.486;7.964;2023-05-29T15:25:40;25.60;16.70
4840;DHT22;2434;48.486;7.964;2023-05-29T15:28:09;25.60;16.30
4840;DHT22;2434;48.486;7.964;2023-05-29T15:30:40;25.60;16.80
4840;DHT22;2434;48.486;7.964;2023-05-29T15:33:08;25.50;16.70
4840;DHT22;2434;48.486;7.964;2023-05-29T15:35:38;25.50;17.50
4840;DHT22;2434;48.486;7.964;2023-05-29T15:38:08;25.50;18.50
4840;DHT22;2434;48.486;7.964;2023-05-29T15:40:37;25.50;17.80
4840;DHT22;2434;48.486;7.964;2023-05-29T15:43:06;25.50;18.50
4840;DHT22;2434;48.486;7.964;2023-05-29T15:45:35;25.60;18.80
4840;DHT22;2434;48.486;7.964;2023-05-29T15:48:03;25.60;18.20
4840;DHT22;2434;48.486;7.964;2023-05-29T15:50:32;25.50;16.60
4840;DHT22;2434;48.486;7.964;2023-05-29T15:53:00;25.50;17.60
4840;DHT22;2434;48.486;7.964;2023-05-29T15:55:29;25.50;17.10
4840;DHT22;2434;48.486;7.964;2023-05-29T15:57:57;25.50;16.50
4840;DHT22;2434;48.486;7.964;2023-05-29T16:00:26;25.50;16.60
4840;DHT22;2434;48.486;7.964;2023-05-29T16:02:55;25.60;16.50
4840;DHT22;2434;48.486;7.964;2023-05-29T16:05:23;25.60;17.00
4840;DHT22;2434;48.486;7.964;2023-05-29T16:07:52;25.60;16.50
4840;DHT22;2434;48.486;7.964;2023-05-29T16:10:20;25.60;16.90
4840;DHT22;2434;48.486;7.964;2023-05-29T16:12:49;25.60;17.60
4840;DHT22;2434;48.486;7.964;2023-05-29T16:15:17;25.50;18.20
4840;DHT22;2434;48.486;7.964;2023-05-29T16:17:48;25.50;17.70
4840;DHT22;2434;48.486;7.964;2023-05-29T16:20:17;25.50;17.10
4840;DHT22;2434;48.486;7.964;2023-05-29T16:22:46;25.40;17.10